KLM121 LHBP-LSGG
Flight info
| Callsign | KLM121 |
|---|---|
| Flight time | 1h 41m |
| Altitude | 38000 |
| Route | GILEP DCT ZOLKU DCT SUNIS DCT MALUG/N0450F370 DCT SRN/N0452F380 DCT OMETO DCT TERSI DCT AOSTA L615 BANKO |
| Aircraft | B738/M-SDE2E3FGHIRWXY/LB1 |
Departure
| Time | 2026-05-05 10:34 |
|---|---|
| Airport | Budapest Liszt Ferenc International Airport (LHBP) |
Arrival
| Time | 2026-05-05 12:15 |
|---|---|
| Airport | Geneva International Airport (LSGG) |
| Time | Latitude | Longitude | Altitude | Speed | Heading |
|---|---|---|---|---|---|
| 2026-05-05 09:47 | 47.43651 | 19.25957 | 475 ft | 0 kts | 211° |
| 2026-05-05 09:50 | 47.43295 | 19.25700 | 471 ft | 0 kts | 39° |
| 2026-05-05 10:24 | 47.43279 | 19.25680 | 471 ft | 4 kts | 40° |
| 2026-05-05 10:25 | 47.43257 | 19.25657 | 478 ft | 4 kts | 28° |
| 2026-05-05 10:25 | 47.43233 | 19.25643 | 472 ft | 4 kts | 4° |
| 2026-05-05 10:25 | 47.43210 | 19.25649 | 472 ft | 3 kts | 315° |
| 2026-05-05 10:25 | 47.43204 | 19.25657 | 472 ft | 0 kts | 311° |
| 2026-05-05 10:29 | 47.43206 | 19.25654 | 472 ft | 2 kts | 311° |
| 2026-05-05 10:29 | 47.43226 | 19.25622 | 478 ft | 7 kts | 311° |
| 2026-05-05 10:29 | 47.43267 | 19.25553 | 480 ft | 12 kts | 311° |
| 2026-05-05 10:30 | 47.43329 | 19.25454 | 477 ft | 14 kts | 317° |
| 2026-05-05 10:30 | 47.43409 | 19.25474 | 478 ft | 13 kts | 42° |
| 2026-05-05 10:30 | 47.43478 | 19.25566 | 482 ft | 14 kts | 42° |
| 2026-05-05 10:30 | 47.43554 | 19.25669 | 483 ft | 15 kts | 43° |
| 2026-05-05 10:31 | 47.43630 | 19.25773 | 481 ft | 15 kts | 43° |
| 2026-05-05 10:31 | 47.43704 | 19.25871 | 480 ft | 14 kts | 42° |
| 2026-05-05 10:31 | 47.43774 | 19.25966 | 488 ft | 13 kts | 43° |
| 2026-05-05 10:31 | 47.43842 | 19.26056 | 486 ft | 13 kts | 42° |
| 2026-05-05 10:32 | 47.43907 | 19.26144 | 487 ft | 13 kts | 43° |
| 2026-05-05 10:32 | 47.43971 | 19.26230 | 488 ft | 12 kts | 42° |
| 2026-05-05 10:32 | 47.44032 | 19.26315 | 495 ft | 12 kts | 47° |
| 2026-05-05 10:32 | 47.44067 | 19.26429 | 485 ft | 14 kts | 84° |
| 2026-05-05 10:33 | 47.44022 | 19.26597 | 484 ft | 22 kts | 131° |
| 2026-05-05 10:33 | 47.43836 | 19.26897 | 487 ft | 72 kts | 132° |
| 2026-05-05 10:33 | 47.43343 | 19.27694 | 486 ft | 136 kts | 132° |
| 2026-05-05 10:33 | 47.42597 | 19.28916 | 645 ft | 177 kts | 131° |
| 2026-05-05 10:34 | 47.41940 | 19.30426 | 1485 ft | 176 kts | 110° |
| 2026-05-05 10:34 | 47.41781 | 19.32271 | 2266 ft | 183 kts | 110° |
| 2026-05-05 10:34 | 47.41020 | 19.33819 | 2582 ft | 198 kts | 144° |
| 2026-05-05 10:34 | 47.40039 | 19.35458 | 2770 ft | 230 kts | 124° |
| 2026-05-05 10:35 | 47.39219 | 19.37557 | 3320 ft | 239 kts | 124° |
| 2026-05-05 10:35 | 47.38277 | 19.39581 | 3967 ft | 245 kts | 141° |
| 2026-05-05 10:35 | 47.36757 | 19.40708 | 4498 ft | 249 kts | 174° |
| 2026-05-05 10:35 | 47.35054 | 19.40519 | 5232 ft | 249 kts | 201° |
| 2026-05-05 10:36 | 47.33640 | 19.39105 | 6087 ft | 250 kts | 227° |
| 2026-05-05 10:36 | 47.32637 | 19.36997 | 6685 ft | 254 kts | 237° |
| 2026-05-05 10:36 | 47.31756 | 19.34709 | 6970 ft | 258 kts | 239° |
| 2026-05-05 10:36 | 47.30900 | 19.32398 | 6987 ft | 261 kts | 239° |
| 2026-05-05 10:37 | 47.30030 | 19.30056 | 6995 ft | 260 kts | 238° |
| 2026-05-05 10:37 | 47.29149 | 19.27722 | 7171 ft | 263 kts | 238° |
| 2026-05-05 10:37 | 47.28249 | 19.25360 | 7907 ft | 265 kts | 238° |
| 2026-05-05 10:37 | 47.27343 | 19.22991 | 8703 ft | 266 kts | 237° |
| 2026-05-05 10:38 | 47.26421 | 19.20601 | 9426 ft | 271 kts | 237° |
| 2026-05-05 10:38 | 47.25479 | 19.18170 | 10120 ft | 276 kts | 237° |
| 2026-05-05 10:38 | 47.24500 | 19.15648 | 10421 ft | 295 kts | 237° |
| 2026-05-05 10:38 | 47.23442 | 19.12928 | 10594 ft | 317 kts | 237° |
| 2026-05-05 10:39 | 47.22310 | 19.10022 | 10827 ft | 336 kts | 237° |
| 2026-05-05 10:39 | 47.21144 | 19.06998 | 11341 ft | 344 kts | 240° |
| 2026-05-05 10:39 | 47.20438 | 19.03621 | 12072 ft | 352 kts | 261° |
| 2026-05-05 10:39 | 47.20621 | 18.99995 | 12746 ft | 363 kts | 281° |
| 2026-05-05 10:40 | 47.21649 | 18.96564 | 13413 ft | 375 kts | 301° |
| 2026-05-05 10:40 | 47.23229 | 18.93483 | 14102 ft | 379 kts | 305° |
| 2026-05-05 10:40 | 47.24889 | 18.90430 | 14734 ft | 384 kts | 306° |
| 2026-05-05 10:40 | 47.26572 | 18.87359 | 15423 ft | 387 kts | 306° |
| 2026-05-05 10:41 | 47.28262 | 18.84256 | 16127 ft | 389 kts | 306° |
| 2026-05-05 10:41 | 47.29948 | 18.81125 | 16816 ft | 392 kts | 305° |
| 2026-05-05 10:41 | 47.31641 | 18.77956 | 17477 ft | 395 kts | 305° |
| 2026-05-05 10:41 | 47.33342 | 18.74753 | 18125 ft | 398 kts | 305° |
| 2026-05-05 10:42 | 47.36774 | 18.68265 | 19299 ft | 403 kts | 306° |
| 2026-05-05 10:42 | 47.38476 | 18.65045 | 19897 ft | 404 kts | 305° |
| 2026-05-05 10:42 | 47.40209 | 18.61759 | 20465 ft | 407 kts | 306° |
| 2026-05-05 10:43 | 47.41791 | 18.58308 | 20991 ft | 406 kts | 292° |
| 2026-05-05 10:43 | 47.42660 | 18.54369 | 21538 ft | 403 kts | 282° |
| 2026-05-05 10:43 | 47.43409 | 18.50370 | 22098 ft | 406 kts | 283° |
| 2026-05-05 10:43 | 47.44193 | 18.46326 | 22484 ft | 411 kts | 283° |
| 2026-05-05 10:44 | 47.44995 | 18.42295 | 23202 ft | 409 kts | 284° |
| 2026-05-05 10:44 | 47.45808 | 18.38257 | 23663 ft | 412 kts | 284° |
| 2026-05-05 10:44 | 47.46632 | 18.34186 | 24149 ft | 412 kts | 284° |
| 2026-05-05 10:44 | 47.47456 | 18.30105 | 24532 ft | 415 kts | 284° |
| 2026-05-05 10:45 | 47.48281 | 18.26001 | 24881 ft | 420 kts | 284° |
| 2026-05-05 10:45 | 47.49056 | 18.21828 | 25272 ft | 421 kts | 282° |
| 2026-05-05 10:45 | 47.49750 | 18.17605 | 25575 ft | 426 kts | 281° |
| 2026-05-05 10:45 | 47.50428 | 18.13323 | 25892 ft | 429 kts | 281° |
| 2026-05-05 10:46 | 47.51106 | 18.09045 | 26390 ft | 428 kts | 281° |
| 2026-05-05 10:46 | 47.51796 | 18.04759 | 26850 ft | 427 kts | 281° |
| 2026-05-05 10:46 | 47.52484 | 18.00533 | 27169 ft | 430 kts | 281° |
| 2026-05-05 10:46 | 47.53192 | 17.96206 | 27429 ft | 434 kts | 281° |
| 2026-05-05 10:47 | 47.53903 | 17.91865 | 27827 ft | 435 kts | 281° |
| 2026-05-05 10:47 | 47.54612 | 17.87494 | 28069 ft | 440 kts | 281° |
| 2026-05-05 10:47 | 47.54978 | 17.83020 | 28464 ft | 436 kts | 269° |
| 2026-05-05 10:47 | 47.54740 | 17.78560 | 28936 ft | 433 kts | 259° |
| 2026-05-05 10:48 | 47.53999 | 17.74242 | 29235 ft | 435 kts | 248° |
| 2026-05-05 10:48 | 47.52856 | 17.70093 | 29542 ft | 437 kts | 247° |
| 2026-05-05 10:48 | 47.51674 | 17.65958 | 29973 ft | 436 kts | 246° |
| 2026-05-05 10:48 | 47.50494 | 17.61853 | 30476 ft | 432 kts | 246° |
| 2026-05-05 10:49 | 47.49322 | 17.57751 | 30730 ft | 434 kts | 247° |
| 2026-05-05 10:49 | 47.48148 | 17.53613 | 30890 ft | 438 kts | 247° |
| 2026-05-05 10:49 | 47.46983 | 17.49478 | 31375 ft | 433 kts | 247° |
| 2026-05-05 10:49 | 47.45832 | 17.45378 | 31757 ft | 432 kts | 247° |
| 2026-05-05 10:50 | 47.44678 | 17.41266 | 31954 ft | 435 kts | 247° |
| 2026-05-05 10:50 | 47.43522 | 17.37149 | 32338 ft | 433 kts | 247° |
| 2026-05-05 10:50 | 47.42377 | 17.33074 | 32842 ft | 428 kts | 247° |
| 2026-05-05 10:50 | 47.41230 | 17.29004 | 33041 ft | 431 kts | 247° |
| 2026-05-05 10:51 | 47.40074 | 17.24906 | 33248 ft | 432 kts | 247° |
| 2026-05-05 10:51 | 47.38919 | 17.20822 | 33656 ft | 429 kts | 247° |
| 2026-05-05 10:51 | 47.37770 | 17.16765 | 33965 ft | 429 kts | 247° |
| 2026-05-05 10:52 | 47.35458 | 17.08622 | 34434 ft | 428 kts | 247° |
| 2026-05-05 10:52 | 47.34327 | 17.04651 | 34861 ft | 423 kts | 247° |
| 2026-05-05 10:52 | 47.33182 | 17.00636 | 35026 ft | 425 kts | 247° |
| 2026-05-05 10:52 | 47.32032 | 16.96607 | 35175 ft | 427 kts | 247° |
| 2026-05-05 10:53 | 47.30883 | 16.92592 | 35520 ft | 423 kts | 247° |
| 2026-05-05 10:53 | 47.29739 | 16.88600 | 35774 ft | 423 kts | 247° |
| 2026-05-05 10:53 | 47.28588 | 16.84591 | 35880 ft | 426 kts | 247° |
| 2026-05-05 10:53 | 47.27433 | 16.80575 | 36132 ft | 425 kts | 247° |
| 2026-05-05 10:54 | 47.26282 | 16.76578 | 36416 ft | 423 kts | 247° |
| 2026-05-05 10:54 | 47.25137 | 16.72605 | 36718 ft | 421 kts | 247° |
| 2026-05-05 10:54 | 47.23989 | 16.68635 | 36893 ft | 421 kts | 247° |
| 2026-05-05 10:54 | 47.22845 | 16.64679 | 37199 ft | 419 kts | 247° |
| 2026-05-05 10:55 | 47.21704 | 16.60743 | 37405 ft | 419 kts | 247° |
| 2026-05-05 10:55 | 47.19401 | 16.52814 | 37542 ft | 424 kts | 247° |
| 2026-05-05 10:55 | 47.18239 | 16.48824 | 37726 ft | 424 kts | 247° |
| 2026-05-05 10:56 | 47.17079 | 16.44843 | 37909 ft | 424 kts | 247° |
| 2026-05-05 10:56 | 47.14762 | 16.36849 | 37897 ft | 425 kts | 250° |
| 2026-05-05 10:57 | 47.13456 | 16.28442 | 37916 ft | 422 kts | 262° |
| 2026-05-05 10:57 | 47.12648 | 16.19933 | 37901 ft | 420 kts | 262° |
| 2026-05-05 10:58 | 47.11825 | 16.11454 | 37896 ft | 419 kts | 261° |
| 2026-05-05 10:58 | 47.10978 | 16.02997 | 37887 ft | 418 kts | 261° |
| 2026-05-05 10:59 | 47.10122 | 15.94608 | 37895 ft | 419 kts | 261° |
| 2026-05-05 10:59 | 47.09249 | 15.86147 | 37899 ft | 419 kts | 261° |
| 2026-05-05 11:00 | 47.08370 | 15.77680 | 37899 ft | 420 kts | 261° |
| 2026-05-05 11:00 | 47.07482 | 15.69199 | 37892 ft | 421 kts | 261° |
| 2026-05-05 11:01 | 47.06585 | 15.60686 | 37889 ft | 423 kts | 261° |
| 2026-05-05 11:01 | 47.05680 | 15.52159 | 37886 ft | 424 kts | 261° |
| 2026-05-05 11:02 | 47.04922 | 15.45065 | 37886 ft | 424 kts | 261° |
| 2026-05-05 11:02 | 47.04002 | 15.36519 | 37893 ft | 424 kts | 261° |
| 2026-05-05 11:03 | 47.03077 | 15.27972 | 37891 ft | 424 kts | 260° |
| 2026-05-05 11:03 | 47.02144 | 15.19433 | 37886 ft | 423 kts | 260° |
| 2026-05-05 11:04 | 47.01209 | 15.10926 | 37888 ft | 422 kts | 260° |
| 2026-05-05 11:04 | 47.00272 | 15.02464 | 37893 ft | 420 kts | 260° |
| 2026-05-05 11:05 | 46.99335 | 14.94055 | 37894 ft | 417 kts | 260° |
| 2026-05-05 11:05 | 46.98395 | 14.85680 | 37917 ft | 415 kts | 259° |
| 2026-05-05 11:06 | 46.97454 | 14.77353 | 37927 ft | 414 kts | 259° |
| 2026-05-05 11:06 | 46.96507 | 14.69028 | 37914 ft | 414 kts | 259° |
| 2026-05-05 11:07 | 46.95560 | 14.60765 | 37923 ft | 415 kts | 259° |
| 2026-05-05 11:07 | 46.94600 | 14.52440 | 37939 ft | 415 kts | 259° |
| 2026-05-05 11:08 | 46.93625 | 14.44039 | 37944 ft | 416 kts | 259° |
| 2026-05-05 11:08 | 46.92649 | 14.35687 | 37940 ft | 417 kts | 259° |
| 2026-05-05 11:09 | 46.91668 | 14.27347 | 37945 ft | 419 kts | 259° |
| 2026-05-05 11:09 | 46.90673 | 14.18940 | 37942 ft | 420 kts | 259° |
| 2026-05-05 11:10 | 46.89668 | 14.10510 | 37952 ft | 421 kts | 259° |
| 2026-05-05 11:10 | 46.88656 | 14.02070 | 37945 ft | 422 kts | 258° |
| 2026-05-05 11:11 | 46.87636 | 13.93621 | 37929 ft | 422 kts | 258° |
| 2026-05-05 11:11 | 46.86610 | 13.85173 | 37934 ft | 421 kts | 258° |
| 2026-05-05 11:12 | 46.85580 | 13.76754 | 37963 ft | 420 kts | 258° |
| 2026-05-05 11:12 | 46.84546 | 13.68352 | 37955 ft | 420 kts | 258° |
| 2026-05-05 11:13 | 46.83510 | 13.59978 | 37970 ft | 418 kts | 258° |
| 2026-05-05 11:13 | 46.82469 | 13.51628 | 37976 ft | 418 kts | 258° |
| 2026-05-05 11:14 | 46.81423 | 13.43290 | 37975 ft | 417 kts | 258° |
| 2026-05-05 11:14 | 46.80375 | 13.34985 | 37992 ft | 415 kts | 258° |
| 2026-05-05 11:15 | 46.79324 | 13.26699 | 37962 ft | 415 kts | 258° |
| 2026-05-05 11:15 | 46.78276 | 13.18489 | 38029 ft | 413 kts | 258° |
| 2026-05-05 11:16 | 46.77214 | 13.10227 | 38006 ft | 415 kts | 257° |
| 2026-05-05 11:16 | 46.76142 | 13.01937 | 38003 ft | 416 kts | 257° |
| 2026-05-05 11:17 | 46.75062 | 12.93626 | 37983 ft | 417 kts | 257° |
| 2026-05-05 11:17 | 46.73973 | 12.85301 | 37996 ft | 419 kts | 257° |
| 2026-05-05 11:18 | 46.72875 | 12.76955 | 38005 ft | 419 kts | 257° |
| 2026-05-05 11:18 | 46.71771 | 12.68593 | 37983 ft | 420 kts | 257° |
| 2026-05-05 11:19 | 46.70629 | 12.60257 | 38000 ft | 419 kts | 254° |
| 2026-05-05 11:19 | 46.68612 | 12.52348 | 37999 ft | 416 kts | 246° |
| 2026-05-05 11:20 | 46.66415 | 12.44554 | 38010 ft | 416 kts | 246° |
| 2026-05-05 11:20 | 46.64228 | 12.36769 | 38002 ft | 415 kts | 247° |
| 2026-05-05 11:21 | 46.62057 | 12.28999 | 38017 ft | 414 kts | 247° |
| 2026-05-05 11:21 | 46.59888 | 12.21238 | 38014 ft | 414 kts | 247° |
| 2026-05-05 11:22 | 46.57734 | 12.13552 | 37965 ft | 414 kts | 247° |
| 2026-05-05 11:22 | 46.55556 | 12.05805 | 37977 ft | 413 kts | 247° |
| 2026-05-05 11:23 | 46.53372 | 11.98060 | 37972 ft | 414 kts | 247° |
| 2026-05-05 11:23 | 46.51178 | 11.90308 | 37988 ft | 416 kts | 247° |
| 2026-05-05 11:24 | 46.48972 | 11.82538 | 37973 ft | 417 kts | 247° |
| 2026-05-05 11:24 | 46.46756 | 11.74755 | 37995 ft | 418 kts | 247° |
| 2026-05-05 11:25 | 46.44526 | 11.66946 | 37987 ft | 419 kts | 247° |
| 2026-05-05 11:25 | 46.42295 | 11.59161 | 38001 ft | 418 kts | 247° |
| 2026-05-05 11:26 | 46.40060 | 11.51388 | 37988 ft | 418 kts | 247° |
| 2026-05-05 11:26 | 46.37834 | 11.43672 | 37988 ft | 418 kts | 247° |
| 2026-05-05 11:27 | 46.35590 | 11.35914 | 37988 ft | 416 kts | 247° |
| 2026-05-05 11:27 | 46.33351 | 11.28200 | 38008 ft | 415 kts | 247° |
| 2026-05-05 11:28 | 46.31106 | 11.20489 | 38058 ft | 417 kts | 247° |
| 2026-05-05 11:28 | 46.28848 | 11.12760 | 38057 ft | 417 kts | 247° |
| 2026-05-05 11:29 | 46.26579 | 11.05016 | 38058 ft | 419 kts | 247° |
| 2026-05-05 11:29 | 46.24297 | 10.97252 | 38050 ft | 421 kts | 247° |
| 2026-05-05 11:30 | 46.21997 | 10.89456 | 38041 ft | 422 kts | 247° |
| 2026-05-05 11:30 | 46.19710 | 10.81720 | 38034 ft | 415 kts | 247° |
| 2026-05-05 11:31 | 46.17455 | 10.74136 | 38000 ft | 407 kts | 246° |
| 2026-05-05 11:31 | 46.15236 | 10.66665 | 38011 ft | 406 kts | 246° |
| 2026-05-05 11:32 | 46.12988 | 10.59126 | 38029 ft | 412 kts | 246° |
| 2026-05-05 11:32 | 46.10705 | 10.51498 | 38014 ft | 420 kts | 246° |
| 2026-05-05 11:33 | 46.08404 | 10.43836 | 37990 ft | 411 kts | 246° |
| 2026-05-05 11:33 | 46.06145 | 10.36338 | 37996 ft | 407 kts | 246° |
| 2026-05-05 11:34 | 46.03891 | 10.28873 | 38013 ft | 406 kts | 246° |
| 2026-05-05 11:34 | 46.01635 | 10.21430 | 38000 ft | 406 kts | 246° |
| 2026-05-05 11:35 | 45.99372 | 10.13983 | 37976 ft | 406 kts | 246° |
| 2026-05-05 11:35 | 45.97102 | 10.06534 | 37996 ft | 408 kts | 246° |
| 2026-05-05 11:36 | 45.94812 | 9.99042 | 37985 ft | 410 kts | 246° |
| 2026-05-05 11:36 | 45.92510 | 9.91532 | 37980 ft | 411 kts | 246° |
| 2026-05-05 11:37 | 45.90203 | 9.84032 | 37959 ft | 410 kts | 245° |
| 2026-05-05 11:37 | 45.87918 | 9.76620 | 37980 ft | 409 kts | 245° |
| 2026-05-05 11:38 | 45.85614 | 9.69170 | 37997 ft | 408 kts | 245° |
| 2026-05-05 11:38 | 45.83307 | 9.61735 | 37983 ft | 407 kts | 245° |
| 2026-05-05 11:39 | 45.80999 | 9.54313 | 38011 ft | 407 kts | 245° |
| 2026-05-05 11:39 | 45.78691 | 9.46918 | 38000 ft | 406 kts | 245° |
| 2026-05-05 11:40 | 45.76376 | 9.39518 | 37991 ft | 406 kts | 245° |
| 2026-05-05 11:40 | 45.74062 | 9.32146 | 37986 ft | 406 kts | 245° |
| 2026-05-05 11:41 | 45.71744 | 9.24777 | 37984 ft | 406 kts | 245° |
| 2026-05-05 11:41 | 45.69421 | 9.17414 | 37993 ft | 406 kts | 245° |
| 2026-05-05 11:42 | 45.67095 | 9.10061 | 37996 ft | 405 kts | 245° |
| 2026-05-05 11:42 | 45.65384 | 9.02397 | 38030 ft | 408 kts | 259° |
| 2026-05-05 11:43 | 45.65275 | 8.94260 | 37993 ft | 414 kts | 274° |
| 2026-05-05 11:43 | 45.66078 | 8.86144 | 37995 ft | 416 kts | 275° |
| 2026-05-05 11:44 | 45.66909 | 8.77939 | 37994 ft | 417 kts | 274° |
| 2026-05-05 11:44 | 45.67709 | 8.69714 | 37997 ft | 418 kts | 274° |
| 2026-05-05 11:45 | 45.68488 | 8.61466 | 38017 ft | 419 kts | 274° |
| 2026-05-05 11:45 | 45.69260 | 8.53191 | 38011 ft | 420 kts | 274° |
| 2026-05-05 11:46 | 45.70030 | 8.44863 | 37544 ft | 427 kts | 273° |
| 2026-05-05 11:46 | 45.70411 | 8.40717 | 37059 ft | 425 kts | 273° |
| 2026-05-05 11:46 | 45.70796 | 8.36545 | 36534 ft | 421 kts | 273° |
| 2026-05-05 11:46 | 45.71176 | 8.32391 | 35944 ft | 420 kts | 272° |
| 2026-05-05 11:47 | 45.71559 | 8.28190 | 35318 ft | 420 kts | 272° |
| 2026-05-05 11:47 | 45.71928 | 8.24109 | 34846 ft | 417 kts | 271° |
| 2026-05-05 11:47 | 45.72304 | 8.19959 | 34383 ft | 412 kts | 271° |
| 2026-05-05 11:47 | 45.72662 | 8.15985 | 33975 ft | 404 kts | 271° |
| 2026-05-05 11:48 | 45.73368 | 8.08098 | 33114 ft | 394 kts | 271° |
| 2026-05-05 11:48 | 45.73711 | 8.04223 | 32658 ft | 391 kts | 271° |
| 2026-05-05 11:48 | 45.74049 | 8.00397 | 32331 ft | 384 kts | 271° |
| 2026-05-05 11:49 | 45.74381 | 7.96617 | 31920 ft | 380 kts | 271° |
| 2026-05-05 11:49 | 45.74708 | 7.92889 | 31521 ft | 375 kts | 271° |
| 2026-05-05 11:49 | 45.75030 | 7.89199 | 31130 ft | 372 kts | 271° |
| 2026-05-05 11:49 | 45.75347 | 7.85535 | 30764 ft | 370 kts | 271° |
| 2026-05-05 11:50 | 45.75660 | 7.81883 | 30332 ft | 369 kts | 271° |
| 2026-05-05 11:50 | 45.75973 | 7.78252 | 29957 ft | 366 kts | 271° |
| 2026-05-05 11:50 | 45.76283 | 7.74644 | 29480 ft | 364 kts | 271° |
| 2026-05-05 11:50 | 45.76490 | 7.72225 | 29225 ft | 361 kts | 271° |
| 2026-05-05 11:51 | 45.76794 | 7.68669 | 28802 ft | 358 kts | 271° |
| 2026-05-05 11:51 | 45.77094 | 7.65150 | 28414 ft | 355 kts | 271° |
| 2026-05-05 11:51 | 45.77389 | 7.61661 | 28045 ft | 352 kts | 271° |
| 2026-05-05 11:51 | 45.77681 | 7.58188 | 27624 ft | 351 kts | 272° |
| 2026-05-05 11:52 | 45.77968 | 7.54781 | 27273 ft | 347 kts | 272° |
| 2026-05-05 11:52 | 45.78256 | 7.51339 | 26872 ft | 346 kts | 272° |
| 2026-05-05 11:52 | 45.78541 | 7.47924 | 26481 ft | 348 kts | 272° |
| 2026-05-05 11:52 | 45.78827 | 7.44444 | 26131 ft | 358 kts | 272° |
| 2026-05-05 11:53 | 45.79110 | 7.40837 | 25738 ft | 367 kts | 272° |
| 2026-05-05 11:53 | 45.79395 | 7.37209 | 25325 ft | 366 kts | 272° |
| 2026-05-05 11:53 | 45.79682 | 7.33586 | 24936 ft | 364 kts | 272° |
| 2026-05-05 11:53 | 45.79979 | 7.29985 | 24516 ft | 363 kts | 272° |
| 2026-05-05 11:54 | 45.80278 | 7.26404 | 24125 ft | 361 kts | 273° |
| 2026-05-05 11:54 | 45.80576 | 7.22849 | 23715 ft | 357 kts | 273° |
| 2026-05-05 11:54 | 45.80870 | 7.19331 | 23318 ft | 354 kts | 273° |
| 2026-05-05 11:54 | 45.81159 | 7.15823 | 22883 ft | 354 kts | 273° |
| 2026-05-05 11:55 | 45.81445 | 7.12317 | 22429 ft | 354 kts | 273° |
| 2026-05-05 11:55 | 45.81749 | 7.08842 | 22115 ft | 350 kts | 276° |
| 2026-05-05 11:55 | 45.82406 | 7.05473 | 21684 ft | 353 kts | 287° |
| 2026-05-05 11:55 | 45.83468 | 7.02304 | 21329 ft | 354 kts | 297° |
| 2026-05-05 11:56 | 45.84826 | 6.99362 | 20937 ft | 353 kts | 300° |
| 2026-05-05 11:56 | 45.86230 | 6.96478 | 20559 ft | 352 kts | 301° |
| 2026-05-05 11:56 | 45.87633 | 6.93605 | 20139 ft | 350 kts | 301° |
| 2026-05-05 11:56 | 45.89012 | 6.90759 | 19791 ft | 345 kts | 300° |
| 2026-05-05 11:57 | 45.90364 | 6.87942 | 19418 ft | 341 kts | 300° |
| 2026-05-05 11:57 | 45.91693 | 6.85156 | 19040 ft | 336 kts | 300° |
| 2026-05-05 11:57 | 45.93000 | 6.82405 | 18689 ft | 331 kts | 300° |
| 2026-05-05 11:57 | 45.94289 | 6.79683 | 18332 ft | 327 kts | 300° |
| 2026-05-05 11:58 | 45.95564 | 6.76990 | 17949 ft | 324 kts | 300° |
| 2026-05-05 11:58 | 45.96816 | 6.74316 | 17619 ft | 322 kts | 298° |
| 2026-05-05 11:58 | 45.98071 | 6.71603 | 17330 ft | 331 kts | 298° |
| 2026-05-05 11:58 | 45.99357 | 6.68816 | 16976 ft | 336 kts | 298° |
| 2026-05-05 11:59 | 46.00653 | 6.66014 | 16688 ft | 337 kts | 298° |
| 2026-05-05 11:59 | 46.01954 | 6.63207 | 16345 ft | 337 kts | 298° |
| 2026-05-05 11:59 | 46.03250 | 6.60405 | 16016 ft | 336 kts | 299° |
| 2026-05-05 11:59 | 46.04541 | 6.57610 | 15708 ft | 335 kts | 299° |
| 2026-05-05 12:00 | 46.05831 | 6.54834 | 15403 ft | 332 kts | 299° |
| 2026-05-05 12:00 | 46.07129 | 6.52090 | 15091 ft | 330 kts | 300° |
| 2026-05-05 12:00 | 46.08422 | 6.49362 | 14782 ft | 329 kts | 300° |
| 2026-05-05 12:00 | 46.09691 | 6.46684 | 14492 ft | 328 kts | 300° |
| 2026-05-05 12:01 | 46.10993 | 6.43928 | 14187 ft | 329 kts | 300° |
| 2026-05-05 12:01 | 46.12261 | 6.41243 | 13864 ft | 328 kts | 300° |
| 2026-05-05 12:01 | 46.13535 | 6.38541 | 13538 ft | 324 kts | 299° |
| 2026-05-05 12:01 | 46.14794 | 6.35871 | 13220 ft | 320 kts | 299° |
| 2026-05-05 12:02 | 46.16040 | 6.33227 | 12913 ft | 319 kts | 300° |
| 2026-05-05 12:02 | 46.17599 | 6.30930 | 12562 ft | 326 kts | 324° |
| 2026-05-05 12:02 | 46.19713 | 6.29790 | 12273 ft | 328 kts | 350° |
| 2026-05-05 12:02 | 46.21966 | 6.30018 | 11955 ft | 326 kts | 17° |
| 2026-05-05 12:03 | 46.23947 | 6.31522 | 11656 ft | 321 kts | 41° |
| 2026-05-05 12:03 | 46.25529 | 6.33754 | 11392 ft | 316 kts | 47° |
| 2026-05-05 12:03 | 46.27048 | 6.36056 | 11085 ft | 317 kts | 47° |
| 2026-05-05 12:03 | 46.28563 | 6.38332 | 10952 ft | 307 kts | 47° |
| 2026-05-05 12:04 | 46.30008 | 6.40482 | 10865 ft | 289 kts | 47° |
| 2026-05-05 12:04 | 46.31368 | 6.42502 | 10725 ft | 272 kts | 47° |
| 2026-05-05 12:04 | 46.32655 | 6.44411 | 10600 ft | 258 kts | 47° |
| 2026-05-05 12:04 | 46.33874 | 6.46219 | 10471 ft | 245 kts | 47° |
| 2026-05-05 12:05 | 46.35053 | 6.47967 | 10170 ft | 241 kts | 47° |
| 2026-05-05 12:05 | 46.36225 | 6.49708 | 9809 ft | 241 kts | 47° |
| 2026-05-05 12:05 | 46.37391 | 6.51440 | 9454 ft | 239 kts | 47° |
| 2026-05-05 12:05 | 46.38545 | 6.53154 | 9078 ft | 237 kts | 47° |
| 2026-05-05 12:06 | 46.39704 | 6.54876 | 8671 ft | 238 kts | 46° |
| 2026-05-05 12:06 | 46.41069 | 6.56161 | 8312 ft | 234 kts | 11° |
| 2026-05-05 12:06 | 46.42633 | 6.56081 | 8121 ft | 222 kts | 335° |
| 2026-05-05 12:06 | 46.43904 | 6.54926 | 7929 ft | 214 kts | 309° |
| 2026-05-05 12:07 | 46.44716 | 6.53164 | 7733 ft | 210 kts | 287° |
| 2026-05-05 12:07 | 46.45228 | 6.51168 | 7538 ft | 213 kts | 285° |
| 2026-05-05 12:07 | 46.45747 | 6.49158 | 7337 ft | 213 kts | 285° |
| 2026-05-05 12:07 | 46.46264 | 6.47150 | 7144 ft | 212 kts | 283° |
| 2026-05-05 12:08 | 46.46351 | 6.45097 | 6927 ft | 202 kts | 251° |
| 2026-05-05 12:08 | 46.45805 | 6.43264 | 6766 ft | 195 kts | 232° |
| 2026-05-05 12:08 | 46.44905 | 6.41869 | 6529 ft | 186 kts | 224° |
| 2026-05-05 12:08 | 46.44005 | 6.40560 | 6343 ft | 180 kts | 223° |
| 2026-05-05 12:09 | 46.43148 | 6.39308 | 6111 ft | 171 kts | 224° |
| 2026-05-05 12:09 | 46.42324 | 6.38103 | 5926 ft | 166 kts | 224° |
| 2026-05-05 12:09 | 46.41526 | 6.36939 | 5722 ft | 161 kts | 223° |
| 2026-05-05 12:09 | 46.40732 | 6.35781 | 5542 ft | 163 kts | 223° |
| 2026-05-05 12:10 | 46.39933 | 6.34616 | 5384 ft | 161 kts | 222° |
| 2026-05-05 12:10 | 46.39146 | 6.33469 | 5165 ft | 160 kts | 223° |
| 2026-05-05 12:10 | 46.38370 | 6.32338 | 4997 ft | 161 kts | 223° |
| 2026-05-05 12:10 | 46.37575 | 6.31176 | 4799 ft | 164 kts | 224° |
| 2026-05-05 12:11 | 46.36754 | 6.29962 | 4590 ft | 169 kts | 223° |
| 2026-05-05 12:11 | 46.35928 | 6.28739 | 4369 ft | 175 kts | 224° |
| 2026-05-05 12:11 | 46.35081 | 6.27475 | 4207 ft | 177 kts | 224° |
| 2026-05-05 12:11 | 46.34222 | 6.26204 | 3980 ft | 174 kts | 224° |
| 2026-05-05 12:12 | 46.33388 | 6.24976 | 3739 ft | 168 kts | 223° |
| 2026-05-05 12:12 | 46.32597 | 6.23815 | 3558 ft | 157 kts | 223° |
| 2026-05-05 12:12 | 46.31848 | 6.22714 | 3317 ft | 149 kts | 224° |
| 2026-05-05 12:12 | 46.31137 | 6.21668 | 3136 ft | 143 kts | 224° |
| 2026-05-05 12:13 | 46.30451 | 6.20661 | 2937 ft | 138 kts | 224° |
| 2026-05-05 12:13 | 46.29774 | 6.19668 | 2741 ft | 139 kts | 225° |
| 2026-05-05 12:13 | 46.29104 | 6.18682 | 2534 ft | 138 kts | 226° |
| 2026-05-05 12:13 | 46.28428 | 6.17690 | 2365 ft | 139 kts | 225° |
| 2026-05-05 12:14 | 46.27742 | 6.16681 | 2150 ft | 143 kts | 226° |
| 2026-05-05 12:14 | 46.27035 | 6.15640 | 1953 ft | 149 kts | 226° |
| 2026-05-05 12:14 | 46.26305 | 6.14562 | 1783 ft | 152 kts | 227° |
| 2026-05-05 12:14 | 46.25565 | 6.13462 | 1606 ft | 154 kts | 223° |
| 2026-05-05 12:15 | 46.24807 | 6.12353 | 1373 ft | 153 kts | 224° |
| 2026-05-05 12:15 | 46.24131 | 6.11376 | 1372 ft | 118 kts | 225° |
| 2026-05-05 12:15 | 46.23660 | 6.10683 | 1379 ft | 75 kts | 225° |
| 2026-05-05 12:15 | 46.23369 | 6.10258 | 1391 ft | 41 kts | 223° |
| 2026-05-05 12:16 | 46.23208 | 6.10121 | 1385 ft | 17 kts | 199° |
| 2026-05-05 12:16 | 46.23133 | 6.10090 | 1387 ft | 5 kts | 187° |
| 2026-05-05 12:16 | 46.23125 | 6.10090 | 1386 ft | 0 kts | 178° |
| 2026-05-05 12:17 | 46.23107 | 6.10096 | 1388 ft | 6 kts | 158° |
| 2026-05-05 12:18 | 46.23067 | 6.10146 | 1390 ft | 9 kts | 136° |
| 2026-05-05 12:18 | 46.23016 | 6.10216 | 1388 ft | 10 kts | 135° |
| 2026-05-05 12:18 | 46.22966 | 6.10288 | 1386 ft | 10 kts | 130° |
| 2026-05-05 12:18 | 46.22974 | 6.10374 | 1387 ft | 8 kts | 53° |
| 2026-05-05 12:19 | 46.22971 | 6.10402 | 1388 ft | 5 kts | 105° |
| 2026-05-05 12:19 | 46.22955 | 6.10439 | 1390 ft | 3 kts | 133° |
| 2026-05-05 12:19 | 46.22951 | 6.10444 | 1388 ft | 0 kts | 134° |